Time;durP1;ratioP1;P1;durP2;ratioP2;P2;SDS_P1;SDS_P2;PMS_P1;PMS_P2;Temp;Humidity;BMP_temperature;BMP_pressure;BME280_temperature;BME280_humidity;BME280_pressure;Samples;Min_cycle;Max_cycle;Signal;HPM_P1;HPM_P2
2021/11/24 00:00:23;;;;;;;3.95;2.70;;;;;;;-2.94;100.00;100471.53;2578331;55;20104;-70
2021/11/24 00:02:53;;;;;;;6.25;3.83;;;;;;;-2.95;100.00;100461.97;2578421;55;20658;-71
2021/11/24 00:05:21;;;;;;;5.78;3.33;;;;;;;-2.93;100.00;100461.94;2578352;55;20122;-73
2021/11/24 00:07:49;;;;;;;5.62;3.12;;;;;;;-2.99;100.00;100452.50;2578382;55;20647;-73
2021/11/24 00:10:19;;;;;;;6.87;3.60;;;;;;;-2.98;100.00;100441.16;2578359;55;20113;-73
2021/11/24 00:12:49;;;;;;;7.18;4.30;;;;;;;-2.98;100.00;100435.94;2578511;55;20116;-71
2021/11/24 00:15:17;;;;;;;9.48;4.62;;;;;;;-3.00;100.00;100424.69;2578317;55;20124;-71
2021/11/24 00:17:45;;;;;;;5.95;4.00;;;;;;;-2.99;100.00;100413.34;2578424;55;20113;-71
2021/11/24 00:20:13;;;;;;;9.18;4.62;;;;;;;-3.02;100.00;100413.41;2578346;55;20138;-71
2021/11/24 00:22:41;;;;;;;7.93;4.87;;;;;;;-3.00;100.00;100398.59;2578299;55;20117;-71
2021/11/24 00:25:10;;;;;;;5.72;3.92;;;;;;;-2.97;100.00;100398.50;2578325;55;20105;-73
2021/11/24 00:27:39;;;;;;;8.32;4.40;;;;;;;-2.97;100.00;100393.28;2578404;55;20109;-71
2021/11/24 00:30:10;;;;;;;10.10;5.28;;;;;;;-2.93;100.00;100381.00;2578437;55;20109;-71
2021/11/24 00:32:38;;;;;;;6.70;4.30;;;;;;;-2.92;100.00;100387.06;2578320;55;20421;-73
2021/11/24 00:35:07;;;;;;;8.18;4.97;;;;;;;-2.92;100.00;100376.63;2578545;55;20109;-71
2021/11/24 00:37:36;;;;;;;6.97;3.72;;;;;;;-2.88;100.00;100378.28;2578100;55;20116;-71
2021/11/24 00:40:06;;;;;;;6.15;4.75;;;;;;;-2.88;100.00;100366.06;2578224;55;20128;-71
2021/11/24 00:42:34;;;;;;;8.65;4.25;;;;;;;-2.88;100.00;100357.41;2578201;55;20118;-73
2021/11/24 00:45:04;;;;;;;7.18;4.45;;;;;;;-2.91;100.00;100347.00;2578291;55;20125;-72
2021/11/24 00:47:33;;;;;;;6.57;4.03;;;;;;;-2.90;100.00;100343.53;2578283;55;20112;-71
2021/11/24 00:50:02;;;;;;;6.10;3.45;;;;;;;-2.95;100.00;100339.25;2578256;55;20123;-71
2021/11/24 00:52:30;;;;;;;6.20;3.30;;;;;;;-2.96;100.00;100326.25;2573342;55;20174;-70
2021/11/24 00:54:58;;;;;;;5.72;3.45;;;;;;;-2.96;100.00;100327.09;2578374;55;20117;-72
2021/11/24 00:57:27;;;;;;;6.65;3.33;;;;;;;-2.92;100.00;100319.19;2573259;55;20128;-72
2021/11/24 00:59:54;;;;;;;5.40;3.08;;;;;;;-2.88;100.00;100305.19;2573102;55;20113;-71
2021/11/24 01:02:22;;;;;;;5.75;3.05;;;;;;;-2.85;100.00;100294.63;2578125;55;20139;-73
2021/11/24 01:04:52;;;;;;;3.65;2.67;;;;;;;-2.86;100.00;100285.94;2578279;55;20131;-72
2021/11/24 01:07:20;;;;;;;5.07;3.50;;;;;;;-2.87;100.00;100272.94;2578233;55;20631;-70
2021/11/24 01:09:51;;;;;;;6.75;3.05;;;;;;;-2.86;100.00;100264.22;2578213;55;20117;-72
2021/11/24 01:12:20;;;;;;;4.80;3.55;;;;;;;-2.84;100.00;100259.78;2578334;55;20127;-73
2021/11/24 01:14:48;;;;;;;5.70;3.03;;;;;;;-2.82;100.00;100252.78;2578203;55;20101;-72
2021/11/24 01:17:16;;;;;;;4.03;2.55;;;;;;;-2.80;100.00;100245.78;2578257;55;20109;-73
2021/11/24 01:19:44;;;;;;;4.93;2.37;;;;;;;-2.75;100.00;100254.31;2578186;55;20113;-72
2021/11/24 01:22:14;;;;;;;6.12;2.72;;;;;;;-2.74;100.00;100245.59;2578204;55;20109;-71
2021/11/24 01:24:42;;;;;;;4.75;2.22;;;;;;;-2.74;100.00;100236.91;2578093;55;20116;-73
2021/11/24 01:27:10;;;;;;;5.68;2.80;;;;;;;-2.76;100.00;100231.72;2578269;55;20132;-72
2021/11/24 01:29:38;;;;;;;4.68;2.83;;;;;;;-2.75;100.00;100212.53;2578129;55;20152;-73
2021/11/24 01:32:07;;;;;;;4.55;2.50;;;;;;;-2.73;100.00;100221.19;2578322;55;20511;-71
2021/11/24 01:34:35;;;;;;;4.65;2.42;;;;;;;-2.73;100.00;100209.91;2577883;55;20536;-71
2021/11/24 01:37:03;;;;;;;4.72;2.35;;;;;;;-2.66;100.00;100222.72;2578099;55;20110;-73
2021/11/24 01:39:33;;;;;;;4.70;2.50;;;;;;;-2.68;100.00;100197.53;2572908;55;20493;-71
2021/11/24 01:42:01;;;;;;;4.05;2.47;;;;;;;-2.68;100.00;100187.97;2582021;55;20108;-73
2021/11/24 01:44:30;;;;;;;4.20;2.60;;;;;;;-2.65;100.00;100184.41;2578379;55;20120;-72
2021/11/24 01:46:59;;;;;;;3.10;2.50;;;;;;;-2.61;100.00;100183.41;2583528;55;20117;-71
2021/11/24 01:49:29;;;;;;;4.07;2.83;;;;;;;-2.59;100.00;100170.31;2583684;55;20117;-72
2021/11/24 01:51:58;;;;;;;4.00;2.70;;;;;;;-2.58;100.00;100172.03;2584174;55;20121;-70
2021/11/24 01:54:28;;;;;;;3.70;2.87;;;;;;;-2.56;100.00;100165.00;2584143;55;20125;-71
2021/11/24 01:56:58;;;;;;;4.07;2.10;;;;;;;-2.56;100.00;100170.22;2584181;55;20129;-72
2021/11/24 01:59:27;;;;;;;4.87;3.28;;;;;;;-2.53;100.00;100165.78;2584060;55;20615;-71
2021/11/24 02:01:55;;;;;;;3.83;2.50;;;;;;;-2.55;100.00;100154.50;2584059;55;20149;-73
2021/11/24 02:04:24;;;;;;;4.25;2.80;;;;;;;-2.51;100.00;100150.03;2579050;55;20121;-70
2021/11/24 02:06:53;;;;;;;6.35;2.75;;;;;;;-2.50;100.00;100150.91;2584098;55;20109;-74
2021/11/24 02:09:21;;;;;;;5.00;3.40;;;;;;;-2.54;100.00;100124.87;2584096;55;20125;-73
2021/11/24 02:11:50;;;;;;;2.50;1.95;;;;;;;-2.45;100.00;100131.56;2584156;55;20123;-71
2021/11/24 02:14:20;;;;;;;6.45;2.45;;;;;;;-2.44;100.00;100122.81;2584173;55;20113;-73
2021/11/24 02:16:50;;;;;;;4.70;2.00;;;;;;;-2.47;100.00;100117.69;2583975;55;20161;-71
2021/11/24 02:19:19;;;;;;;4.35;2.55;;;;;;;-2.46;100.00;100111.56;2584257;55;20130;-72
2021/11/24 02:21:50;;;;;;;3.75;2.45;;;;;;;-2.47;100.00;100102.03;2584109;55;20121;-73
2021/11/24 02:24:20;;;;;;;4.72;2.60;;;;;;;-2.47;100.00;100085.47;2584009;55;20123;-71
2021/11/24 02:26:49;;;;;;;5.00;2.62;;;;;;;-2.46;100.00;100082.81;2584303;55;20619;-71
2021/11/24 02:29:17;;;;;;;4.15;2.17;;;;;;;-2.48;100.00;100074.19;2584177;55;20109;-73
2021/11/24 02:31:47;;;;;;;5.10;2.70;;;;;;;-2.51;100.00;100071.66;2584275;55;20726;-73
2021/11/24 02:34:15;;;;;;;3.90;2.40;;;;;;;-2.50;100.00;100052.47;2583965;55;20141;-73
2021/11/24 02:36:43;;;;;;;3.67;2.00;;;;;;;-2.51;100.00;100042.91;2583938;55;20153;-71
2021/11/24 02:39:14;;;;;;;5.47;2.50;;;;;;;-2.54;100.00;100037.78;2584092;55;20097;-73
2021/11/24 02:41:43;;;;;;;3.72;2.25;;;;;;;-2.58;100.00;100012.69;2584051;55;20121;-73
2021/11/24 02:44:19;;;;;;;5.90;2.33;;;;;;;-2.56;100.00;100016.94;2578911;55;20113;-73
2021/11/24 02:46:48;;;;;;;5.07;2.35;;;;;;;-2.58;100.00;100004.84;2584249;55;20120;-71
2021/11/24 02:49:16;;;;;;;7.43;3.30;;;;;;;-2.61;100.00;99989.25;2583948;55;20629;-71
2021/11/24 02:51:47;;;;;;;5.57;2.42;;;;;;;-2.67;100.00;99967.66;2583962;55;20568;-73
2021/11/24 02:54:17;;;;;;;;;;;;;;;-2.57;100.00;99970.81;2579264;55;20127;-73
2021/11/24 02:56:45;;;;;;;6.37;2.35;;;;;;;-2.66;100.00;99948.47;2583939;55;19981;-71
2021/11/24 02:59:13;;;;;;;3.80;2.47;;;;;;;-2.67;100.00;99954.59;2584107;55;20117;-72
2021/11/24 03:01:41;;;;;;;3.92;2.15;;;;;;;-2.69;100.00;99940.75;2583772;55;20104;-74
2021/11/24 03:04:09;;;;;;;5.45;2.80;;;;;;;-2.71;100.00;99936.47;2584145;55;20120;-71
2021/11/24 03:06:38;;;;;;;3.12;2.00;;;;;;;-2.71;100.00;99932.09;2583982;55;20150;-71
2021/11/24 03:09:07;;;;;;;3.55;1.98;;;;;;;-2.77;100.00;99911.41;2583876;55;20537;-71
2021/11/24 03:11:36;;;;;;;3.87;2.78;;;;;;;-2.73;100.00;99891.28;2584252;55;20146;-71
2021/11/24 03:14:04;;;;;;;4.78;2.50;;;;;;;-2.77;100.00;99887.03;2583820;55;20551;-71
2021/11/24 03:16:32;;;;;;;2.60;1.77;;;;;;;-2.76;100.00;99883.53;2584153;55;20109;-71
2021/11/24 03:19:00;;;;;;;4.05;3.10;;;;;;;-2.76;100.00;99866.13;2583909;55;20153;-73
2021/11/24 03:21:28;;;;;;;4.95;2.40;;;;;;;-2.77;100.00;99853.97;2584142;55;20116;-71
2021/11/24 03:23:57;;;;;;;5.90;2.97;;;;;;;-2.76;100.00;99853.06;2583879;55;20105;-72
2021/11/24 03:26:25;;;;;;;10.63;5.55;;;;;;;-2.77;100.00;99840.03;2583732;55;20168;-72
2021/11/24 03:28:54;;;;;;;14.93;6.28;;;;;;;-2.78;100.00;99844.44;2583849;55;20170;-74
2021/11/24 03:31:22;;;;;;;16.10;6.60;;;;;;;-2.74;100.00;99835.56;2583873;55;20131;-71
2021/11/24 03:33:50;;;;;;;18.50;7.43;;;;;;;-2.74;100.00;99827.72;2583825;55;20686;-73
2021/11/24 03:36:18;;;;;;;11.57;6.18;;;;;;;-2.72;100.00;99810.25;2583947;55;20112;-73
2021/11/24 03:38:46;;;;;;;8.15;4.53;;;;;;;-2.68;100.00;99801.41;2583951;55;20123;-73
2021/11/24 03:41:14;;;;;;;6.28;3.87;;;;;;;-2.69;100.00;99799.72;2583827;55;20123;-70
2021/11/24 03:43:42;;;;;;;5.90;3.22;;;;;;;-2.67;100.00;99773.53;2583802;55;20603;-70
2021/11/24 03:46:12;;;;;;;3.85;2.30;;;;;;;-2.63;100.00;99763.81;2583821;55;20683;-73
2021/11/24 03:48:40;;;;;;;5.57;2.72;;;;;;;-2.59;100.00;99741.94;2583825;55;20666;-71
2021/11/24 03:51:08;;;;;;;4.72;2.37;;;;;;;-2.61;100.00;99738.50;2583896;55;20135;-72
2021/11/24 03:53:40;;;;;;;5.00;2.62;;;;;;;-2.57;100.00;99712.22;2583830;55;20549;-74
2021/11/24 03:56:08;;;;;;;7.65;4.32;;;;;;;-2.60;100.00;99695.84;2583788;55;20117;-73
2021/11/24 03:58:36;;;;;;;9.77;4.40;;;;;;;-2.62;100.00;99685.44;2583958;55;20161;-73
2021/11/24 04:01:05;;;;;;;11.38;5.05;;;;;;;-2.59;100.00;99681.84;2583637;55;20116;-72
2021/11/24 04:03:35;;;;;;;10.27;4.93;;;;;;;-2.54;100.00;99685.12;2583711;55;20131;-73
2021/11/24 04:06:03;;;;;;;9.82;5.30;;;;;;;-2.55;100.00;99684.31;2578661;55;20122;-72
2021/11/24 04:08:31;;;;;;;10.82;5.07;;;;;;;-2.54;100.00;99677.28;2583800;55;20105;-71
2021/11/24 04:10:59;;;;;;;8.77;3.80;;;;;;;-2.49;100.00;99669.28;2583697;55;20499;-73
2021/11/24 04:13:27;;;;;;;9.00;4.03;;;;;;;-2.41;100.00;99673.31;2583752;55;20130;-73
2021/11/24 04:15:55;;;;;;;8.95;4.25;;;;;;;-2.40;100.00;99669.81;2583859;55;20117;-73
2021/11/24 04:18:24;;;;;;;6.32;3.45;;;;;;;-2.39;100.00;99648.00;2583809;55;20512;-73
2021/11/24 04:20:55;;;;;;;8.48;4.12;;;;;;;-2.38;100.00;99636.63;2583837;55;20116;-72
2021/11/24 04:23:24;;;;;;;6.20;3.17;;;;;;;-2.33;100.00;99612.06;2583904;55;20160;-73
2021/11/24 04:25:52;;;;;;;3.92;2.25;;;;;;;-2.29;100.00;99634.56;2583816;55;20123;-74
2021/11/24 04:28:20;;;;;;;7.40;3.17;;;;;;;-2.24;100.00;99628.25;2583808;55;20631;-74
2021/11/24 04:30:49;;;;;;;3.92;2.45;;;;;;;-2.24;100.00;99607.34;2583833;55;20105;-72
2021/11/24 04:33:17;;;;;;;3.55;2.10;;;;;;;-2.15;100.00;99615.72;2583629;55;20623;-72
2021/11/24 04:35:46;;;;;;;3.87;1.60;;;;;;;-2.12;100.00;99619.03;2578566;55;20121;-72
2021/11/24 04:38:16;;;;;;;2.22;1.60;;;;;;;-2.07;100.00;99603.19;2583787;55;20121;-72
2021/11/24 04:40:44;;;;;;;1.70;1.27;;;;;;;-2.02;100.00;99596.00;2583651;55;20119;-73
2021/11/24 04:43:14;;;;;;;1.15;1.00;;;;;;;-1.99;100.00;99592.44;2583504;55;20120;-72
2021/11/24 04:45:42;;;;;;;1.45;1.05;;;;;;;-1.94;100.00;99579.16;2583649;55;20109;-72
2021/11/24 04:48:10;;;;;;;1.75;1.00;;;;;;;-1.90;100.00;99568.53;2578544;55;20121;-71
2021/11/24 04:50:38;;;;;;;1.67;0.80;;;;;;;-1.83;100.00;99562.09;2583541;55;20128;-74
2021/11/24 04:53:07;;;;;;;1.37;0.75;;;;;;;-1.85;100.00;99561.31;2583581;55;20162;-73
2021/11/24 04:55:36;;;;;;;1.10;1.00;;;;;;;-1.85;100.00;99543.00;2583542;55;20113;-73
2021/11/24 04:58:04;;;;;;;1.85;1.12;;;;;;;-1.82;100.00;99529.78;2583574;55;20125;-72
2021/11/24 05:00:33;;;;;;;3.45;1.10;;;;;;;-1.81;100.00;99530.66;2582369;55;20105;-72
2021/11/24 05:03:01;;;;;;;1.70;1.00;;;;;;;-1.77;100.00;99531.38;2580034;55;20101;-72
2021/11/24 05:05:29;;;;;;;1.15;0.80;;;;;;;-1.80;100.00;99515.81;2579465;55;20110;-72
2021/11/24 05:07:58;;;;;;;1.00;0.70;;;;;;;-1.77;100.00;99513.06;2579800;55;20106;-73
2021/11/24 05:10:27;;;;;;;2.35;1.00;;;;;;;-1.64;100.00;99521.25;2578479;55;20132;-74
2021/11/24 05:12:57;;;;;;;1.55;1.20;;;;;;;-1.61;100.00;99506.22;2578252;55;20113;-74
2021/11/24 05:15:28;;;;;;;3.03;1.10;;;;;;;-1.59;100.00;99503.56;2578377;55;20117;-73
2021/11/24 05:17:59;;;;;;;1.33;1.10;;;;;;;-1.57;100.00;99518.28;2578471;55;20903;-72
2021/11/24 05:20:28;;;;;;;3.50;1.67;;;;;;;-1.47;100.00;99499.56;2578844;55;20156;-72
2021/11/24 05:22:59;;;;;;;2.08;1.30;;;;;;;-1.37;100.00;99493.00;2573796;55;20119;-73
2021/11/24 05:25:27;;;;;;;2.37;1.62;;;;;;;-1.28;100.00;99482.09;2579440;55;20120;-73
2021/11/24 05:27:57;;;;;;;3.10;1.00;;;;;;;-1.23;100.00;99467.94;2580039;55;20119;-73
2021/11/24 05:30:27;;;;;;;3.15;0.90;;;;;;;-1.18;100.00;99471.22;2579369;55;20109;-73
2021/11/24 05:32:56;;;;;;;1.10;0.80;;;;;;;-1.15;100.00;99460.59;2579178;55;20124;-73
2021/11/24 05:35:25;;;;;;;1.70;0.90;;;;;;;-1.10;100.00;99479.56;2579695;55;20131;-73
2021/11/24 05:37:54;;;;;;;1.12;0.70;;;;;;;-1.05;100.00;99468.84;2579086;55;20139;-74
2021/11/24 05:40:22;;;;;;;1.52;1.10;;;;;;;-1.01;100.00;99468.63;2579754;55;20123;-73
2021/11/24 05:42:50;;;;;;;2.12;1.35;;;;;;;-0.96;100.00;99464.97;2578682;55;20111;-74
2021/11/24 05:45:34;;;;;;;2.17;0.90;;;;;;;-0.96;100.00;99470.22;2578430;55;20109;-72
2021/11/24 05:48:08;;;;;;;1.77;1.33;;;;;;;-0.96;100.00;99459.72;2579442;55;20529;-71
2021/11/24 05:50:37;;;;;;;3.45;1.52;;;;;;;-0.88;100.00;99457.59;2578907;55;20123;-80
2021/11/24 05:53:06;;;;;;;1.98;1.30;;;;;;;-0.87;100.00;99464.53;2579647;55;20120;-77
2021/11/24 05:55:34;;;;;;;3.22;0.80;;;;;;;-0.82;100.00;99467.75;2578235;55;20153;-75
2021/11/24 05:58:02;;;;;;;1.27;0.75;;;;;;;-0.80;100.00;99475.56;2572985;55;20121;-73
2021/11/24 06:00:33;;;;;;;1.30;0.98;;;;;;;-0.79;100.00;99475.50;2572968;55;20628;-73
2021/11/24 06:03:01;;;;;;;0.98;0.70;;;;;;;-0.79;100.00;99478.13;2573175;55;20105;-74
2021/11/24 06:05:30;;;;;;;1.42;0.82;;;;;;;-0.82;100.00;99472.16;2572903;55;20149;-71
2021/11/24 06:07:58;;;;;;;1.62;1.50;;;;;;;-0.77;100.00;99472.78;2573000;55;20623;-69
2021/11/24 06:10:27;;;;;;;2.95;1.25;;;;;;;-0.74;100.00;99477.91;2572934;55;20136;-73
2021/11/24 06:12:55;;;;;;;2.05;0.77;;;;;;;-0.71;100.00;99470.72;2571174;55;20457;-71
2021/11/24 06:15:24;;;;;;;1.45;0.90;;;;;;;-0.69;100.00;99475.87;2571153;55;20578;-73
2021/11/24 06:17:53;;;;;;;1.23;1.10;;;;;;;-0.64;100.00;99486.16;2571048;55;20554;-74
2021/11/24 06:20:21;;;;;;;1.95;1.67;;;;;;;-0.66;100.00;99467.03;2570847;55;20966;-74
2021/11/24 06:22:50;;;;;;;1.23;1.00;;;;;;;-0.65;100.00;99477.47;2570852;55;20468;-74
2021/11/24 06:25:19;;;;;;;2.28;1.20;;;;;;;-0.67;100.00;99489.75;2570926;55;20140;-73
2021/11/24 06:27:47;;;;;;;1.87;1.20;;;;;;;-0.67;100.00;99481.91;2571106;55;20124;-70
2021/11/24 06:30:17;;;;;;;3.15;1.83;;;;;;;-0.68;100.00;99482.81;2571002;55;20511;-71
2021/11/24 06:32:47;;;;;;;2.45;1.83;;;;;;;-0.72;100.00;99478.66;2566941;55;20137;-70
2021/11/24 06:35:17;;;;;;;3.00;2.35;;;;;;;-0.66;100.00;99469.66;2573116;55;20122;-74
2021/11/24 06:37:45;;;;;;;4.00;2.00;;;;;;;-0.67;100.00;99465.34;2573861;55;20169;-71
2021/11/24 06:40:14;;;;;;;4.03;2.28;;;;;;;-0.62;100.00;99458.09;2568734;55;20618;-75
2021/11/24 06:42:43;;;;;;;3.47;2.15;;;;;;;-0.65;100.00;99447.78;2573660;55;20120;-71
2021/11/24 06:45:12;;;;;;;3.60;2.70;;;;;;;-0.55;100.00;99467.37;2573750;55;20162;-71
2021/11/24 06:47:41;;;;;;;5.55;3.40;;;;;;;-0.55;100.00;99475.22;2573642;55;20117;-74
2021/11/24 06:50:11;;;;;;;7.12;3.55;;;;;;;-0.50;100.00;99488.09;2573541;55;20512;-75
2021/11/24 06:52:40;;;;;;;5.37;3.70;;;;;;;-0.51;100.00;99487.25;2573764;55;20615;-71
2021/11/24 06:55:11;;;;;;;5.60;3.75;;;;;;;-0.51;100.00;99482.00;2573552;55;20636;-75
2021/11/24 06:57:39;;;;;;;6.03;4.03;;;;;;;-0.48;100.00;99492.34;2573677;55;20109;-71
2021/11/24 07:00:09;;;;;;;4.87;3.25;;;;;;;-0.43;100.00;99494.75;2573652;55;20239;-71
2021/11/24 07:02:37;;;;;;;7.47;3.40;;;;;;;-0.38;100.00;99486.66;2573534;55;20121;-71
2021/11/24 07:05:06;;;;;;;5.05;3.20;;;;;;;-0.26;100.00;99490.41;2573576;55;20508;-72
2021/11/24 07:07:34;;;;;;;7.55;2.83;;;;;;;-0.18;100.00;99491.75;2573638;55;20110;-72
2021/11/24 07:10:05;;;;;;;6.35;3.65;;;;;;;-0.10;100.00;99493.97;2573631;55;20125;-75
2021/11/24 07:12:33;;;;;;;6.78;2.95;;;;;;;-0.04;100.00;99485.81;2573636;55;20117;-71
2021/11/24 07:15:01;;;;;;;7.57;3.12;;;;;;;0.01;100.00;99482.97;2573570;55;20523;-71
2021/11/24 07:17:29;;;;;;;5.80;3.30;;;;;;;0.04;100.00;99488.03;2573533;55;20136;-72
2021/11/24 07:20:00;;;;;;;7.97;3.85;;;;;;;0.11;100.00;99488.56;2573495;55;20136;-74
2021/11/24 07:22:29;;;;;;;8.07;3.72;;;;;;;0.18;100.00;99489.09;2573662;55;20642;-75
2021/11/24 07:24:57;;;;;;;6.87;3.37;;;;;;;0.24;100.00;99478.28;2573332;55;20163;-75
2021/11/24 07:27:26;;;;;;;7.12;3.72;;;;;;;0.27;100.00;99473.75;2573541;55;20624;-76
2021/11/24 07:29:54;;;;;;;7.80;4.43;;;;;;;0.33;100.00;99471.72;2573682;55;20139;-72
2021/11/24 07:32:22;;;;;;;5.80;3.47;;;;;;;0.44;100.00;99479.03;2573578;55;20106;-76
2021/11/24 07:34:51;;;;;;;8.57;3.50;;;;;;;0.47;100.00;99484.09;2573531;55;20118;-72
2021/11/24 07:37:19;;;;;;;6.07;3.80;;;;;;;0.51;100.00;99477.78;2573689;55;20638;-75
2021/11/24 07:39:47;;;;;;;35.97;17.92;;;;;;;0.56;100.00;99475.75;2573474;55;20619;-72
2021/11/24 07:42:15;;;;;;;11.57;5.85;;;;;;;0.64;100.00;99478.81;2573569;55;20110;-75
2021/11/24 07:44:45;;;;;;;9.77;4.12;;;;;;;0.63;100.00;99478.88;2573382;55;20121;-72
2021/11/24 07:47:13;;;;;;;8.00;3.35;;;;;;;0.63;100.00;99482.37;2573710;55;20120;-73
2021/11/24 07:49:41;;;;;;;8.77;4.03;;;;;;;0.65;100.00;99477.88;2573618;55;20118;-73
2021/11/24 07:52:09;;;;;;;8.68;3.92;;;;;;;0.65;100.00;99477.88;2573446;55;20196;-72
2021/11/24 07:54:37;;;;;;;13.32;4.37;;;;;;;0.67;100.00;99483.06;2573448;55;20121;-74
2021/11/24 07:57:06;;;;;;;14.75;7.22;;;;;;;0.69;100.00;99484.66;2573450;55;20486;-75
2021/11/24 07:59:35;;;;;;;11.02;4.47;;;;;;;0.75;100.00;99477.38;2573308;55;20662;-72
2021/11/24 08:02:05;;;;;;;10.40;4.35;;;;;;;0.81;100.00;99477.06;2573469;55;20106;-72
2021/11/24 08:04:33;;;;;;;8.75;4.90;;;;;;;0.87;100.00;99489.84;2573402;55;20115;-72
2021/11/24 08:07:03;;;;;;;10.73;4.93;;;;;;;0.86;100.00;99472.38;2573524;55;20102;-72
2021/11/24 08:09:31;;;;;;;11.95;4.70;;;;;;;0.92;100.00;99479.94;2573304;55;20219;-75
2021/11/24 08:12:00;;;;;;;6.32;3.72;;;;;;;0.96;100.00;99475.37;2573401;55;20122;-75
2021/11/24 08:14:28;;;;;;;8.38;3.12;;;;;;;1.06;100.00;99487.06;2568339;55;20124;-72
2021/11/24 08:16:57;;;;;;;11.95;3.45;;;;;;;1.09;100.00;99480.78;2568479;55;20117;-75
2021/11/24 08:19:26;;;;;;;6.68;3.30;;;;;;;1.13;100.00;99487.56;2573366;55;20122;-72
2021/11/24 08:21:54;;;;;;;7.75;3.40;;;;;;;1.16;100.00;99487.38;2573436;55;20101;-75
2021/11/24 08:24:23;;;;;;;5.85;3.35;;;;;;;1.16;100.00;99479.50;2573205;55;20108;-74
2021/11/24 08:26:53;;;;;;;24.30;11.02;;;;;;;1.17;100.00;99483.81;2573480;55;20117;-75
2021/11/24 08:29:21;;;;;;;10.60;5.65;;;;;;;1.21;100.00;99485.38;2573300;55;20102;-74
2021/11/24 08:31:49;;;;;;;9.38;4.10;;;;;;;1.22;100.00;99484.44;2573325;55;20120;-73
2021/11/24 08:34:17;;;;;;;7.25;3.40;;;;;;;1.22;100.00;99478.31;2573370;55;20105;-73
2021/11/24 08:36:47;;;;;;;7.18;3.97;;;;;;;1.26;100.00;99485.13;2573334;55;20109;-73
2021/11/24 08:39:15;;;;;;;6.37;3.20;;;;;;;1.29;100.00;99492.81;2573328;55;20122;-73
2021/11/24 08:41:44;;;;;;;6.80;3.08;;;;;;;1.30;100.00;99488.38;2573277;55;20110;-73
2021/11/24 08:44:12;;;;;;;10.48;3.60;;;;;;;1.34;100.00;99489.94;2573180;55;20492;-73
2021/11/24 08:46:40;;;;;;;6.18;3.12;;;;;;;1.36;100.00;99488.91;2573320;55;20134;-73
2021/11/24 08:49:08;;;;;;;7.53;2.78;;;;;;;1.39;100.00;99488.72;2573412;55;20127;-73
2021/11/24 08:51:38;;;;;;;9.68;3.40;;;;;;;1.40;100.00;99486.94;2573421;55;20113;-73
2021/11/24 08:54:09;;;;;;;7.60;4.05;;;;;;;1.42;100.00;99487.72;2573484;55;20118;-73
2021/11/24 08:56:38;;;;;;;11.40;3.22;;;;;;;1.43;100.00;99505.19;2573594;55;20640;-73
2021/11/24 08:59:08;;;;;;;9.38;3.28;;;;;;;1.42;100.00;99498.22;2573086;55;20118;-73
2021/11/24 09:01:36;;;;;;;7.57;2.60;;;;;;;1.49;100.00;99499.56;2573350;55;20114;-73
2021/11/24 09:04:05;;;;;;;7.87;2.80;;;;;;;1.47;100.00;99500.59;2573269;55;20242;-73
2021/11/24 09:06:34;;;;;;;6.78;2.90;;;;;;;1.47;100.00;99495.34;2573378;55;20150;-73
2021/11/24 09:09:03;;;;;;;10.75;3.00;;;;;;;1.45;100.00;99502.44;2573088;55;20123;-73
2021/11/24 09:11:33;;;;;;;6.65;3.30;;;;;;;1.47;100.00;99496.19;2573205;55;20140;-73
2021/11/24 09:14:01;;;;;;;5.32;2.90;;;;;;;1.45;100.00;99495.41;2573007;55;20120;-73
2021/11/24 09:16:29;;;;;;;4.60;2.45;;;;;;;1.47;100.00;99498.81;2573111;55;20181;-73
2021/11/24 09:18:57;;;;;;;5.25;2.90;;;;;;;1.49;100.00;99490.84;2573132;55;20113;-73
2021/11/24 09:21:26;;;;;;;5.75;2.35;;;;;;;1.44;100.00;99480.59;2573283;55;20132;-73
2021/11/24 09:23:57;;;;;;;6.90;3.10;;;;;;;1.50;100.00;99496.03;2573074;55;20128;-73
2021/11/24 09:26:30;;;;;;;10.23;4.03;;;;;;;1.57;100.00;99493.03;2573117;55;20165;-73
2021/11/24 09:29:00;;;;;;;9.77;3.85;;;;;;;1.61;100.00;99500.66;2573121;55;20180;-73
2021/11/24 09:31:28;;;;;;;11.07;5.65;;;;;;;1.65;100.00;99498.69;2573238;55;20140;-73
2021/11/24 09:33:56;;;;;;;14.02;5.35;;;;;;;1.70;100.00;99488.75;2573191;55;20174;-73
2021/11/24 09:36:24;;;;;;;6.37;3.12;;;;;;;1.73;100.00;99496.47;2573276;55;20120;-73
2021/11/24 09:38:52;;;;;;;6.12;2.80;;;;;;;1.77;100.00;99489.25;2573126;55;20222;-73
2021/11/24 09:41:24;;;;;;;6.97;2.42;;;;;;;1.83;100.00;99501.19;2573012;55;20109;-72
2021/11/24 09:43:56;;;;;;;14.02;6.35;;;;;;;1.82;100.00;99495.09;2572965;55;20144;-73
2021/11/24 09:46:26;;;;;;;6.18;3.78;;;;;;;1.84;100.00;99508.97;2573026;55;20168;-73
2021/11/24 09:48:59;;;;;;;7.00;3.93;;;;;;;1.86;100.00;99506.28;2573142;55;20153;-73
2021/11/24 09:51:28;;;;;;;7.18;3.37;;;;;;;1.82;100.00;99504.78;2573371;55;20306;-74
2021/11/24 09:53:59;;;;;;;6.80;3.97;;;;;;;1.84;100.00;99493.19;2573010;55;20664;-72
2021/11/24 09:56:27;;;;;;;8.60;5.87;;;;;;;1.86;100.00;99516.78;2573175;55;20162;-72
2021/11/24 09:58:55;;;;;;;4.72;1.98;;;;;;;1.87;100.00;99506.19;2573118;55;20127;-73
2021/11/24 10:01:25;;;;;;;5.95;2.53;;;;;;;1.94;100.00;99509.31;2572968;55;20611;-73
2021/11/24 10:03:54;;;;;;;3.97;1.90;;;;;;;1.98;100.00;99517.88;2572950;55;20159;-72
2021/11/24 10:06:22;;;;;;;3.62;1.45;;;;;;;2.01;100.00;99526.44;2572923;55;20110;-73
2021/11/24 10:08:51;;;;;;;7.87;1.70;;;;;;;1.98;100.00;99516.06;2572928;55;20131;-72
2021/11/24 10:11:19;;;;;;;3.33;1.40;;;;;;;2.01;100.00;99502.75;2573461;55;20121;-73
2021/11/24 10:13:49;;;;;;;2.62;1.50;;;;;;;2.06;100.00;99503.31;2573921;55;20650;-72
2021/11/24 10:16:21;;;;;;;1.90;1.20;;;;;;;2.07;100.00;99520.78;2573839;55;20668;-71
2021/11/24 10:19:02;;;;;;;2.50;1.10;;;;;;;2.08;100.00;99519.84;2574079;55;20520;-71
2021/11/24 10:21:30;;;;;;;6.37;2.10;;;;;;;2.08;100.00;99504.06;2573903;55;20150;-72
2021/11/24 10:24:01;;;;;;;3.10;1.70;;;;;;;2.16;100.00;99537.00;2573598;55;20118;-74
2021/11/24 10:26:32;;;;;;;1.40;0.88;;;;;;;2.18;100.00;99538.59;2573884;55;20132;-71
2021/11/24 10:29:02;;;;;;;;;;;;;;;2.26;100.00;99535.50;2574123;55;20161;-71
2021/11/24 10:31:36;;;;;;;1.92;0.90;;;;;;;2.14;100.00;99541.50;2573938;55;19985;-72
2021/11/24 10:34:16;;;;;;;1.25;0.55;;;;;;;2.15;100.00;99543.19;2573906;55;20120;-73
2021/11/24 10:37:00;;;;;;;3.33;0.93;;;;;;;2.16;100.00;99550.16;2573836;55;20120;-73
2021/11/24 10:39:31;;;;;;;2.42;1.08;;;;;;;2.19;100.00;99549.97;2573877;55;20719;-74
2021/11/24 10:42:07;;;;;;;2.33;0.80;;;;;;;2.19;100.00;99549.97;2573972;55;20500;-74
2021/11/24 10:44:37;;;;;;;3.78;0.73;;;;;;;2.20;100.00;99554.28;2573554;55;20200;-72
2021/11/24 10:47:08;;;;;;;2.25;0.90;;;;;;;2.26;100.00;99553.94;2573635;55;20118;-71
2021/11/24 10:49:42;;;;;;;1.85;1.10;;;;;;;2.26;100.00;99561.00;2573661;55;20526;-74
2021/11/24 10:52:25;;;;;;;2.62;1.00;;;;;;;2.22;100.00;99558.53;2574002;55;20664;-73
2021/11/24 10:55:00;;;;;;;4.15;1.10;;;;;;;2.18;100.00;99558.78;2573645;55;20128;-71
2021/11/24 10:57:28;;;;;;;2.37;0.90;;;;;;;2.22;100.00;99566.41;2573939;55;20173;-73
2021/11/24 11:00:02;;;;;;;0.93;0.60;;;;;;;2.17;100.00;99567.63;2573760;55;20647;-73
2021/11/24 11:02:33;;;;;;;1.50;0.77;;;;;;;2.17;100.00;99563.22;2573794;55;20124;-73
2021/11/24 11:05:09;;;;;;;1.90;1.05;;;;;;;2.28;100.00;99575.75;2573641;55;20114;-71
2021/11/24 11:07:39;;;;;;;1.90;0.73;;;;;;;2.21;100.00;99574.44;2573680;55;20113;-71
2021/11/24 11:10:14;;;;;;;1.55;0.70;;;;;;;2.21;100.00;99563.91;2573706;55;20154;-71
2021/11/24 11:12:44;;;;;;;2.22;0.55;;;;;;;2.22;100.00;99570.84;2573837;55;20128;-73
2021/11/24 11:15:25;;;;;;;1.73;0.43;;;;;;;2.25;100.00;99575.06;2573581;55;20129;-70
2021/11/24 11:17:57;;;;;;;4.50;0.60;;;;;;;2.18;100.00;99582.47;2573590;55;20123;-73
2021/11/24 11:20:30;;;;;;;1.75;0.75;;;;;;;2.14;100.00;99588.87;2568455;55;20628;-74
2021/11/24 11:23:08;;;;;;;1.40;0.65;;;;;;;2.13;100.00;99597.72;2573599;55;20127;-73
2021/11/24 11:25:39;;;;;;;2.87;0.60;;;;;;;2.06;100.00;99608.56;2573281;55;20130;-70
2021/11/24 11:28:08;;;;;;;2.55;0.55;;;;;;;1.93;100.00;99594.44;2573486;55;20501;-70
2021/11/24 11:30:39;;;;;;;2.72;0.60;;;;;;;1.91;100.00;99620.81;2573423;55;20519;-70
2021/11/24 11:33:07;;;;;;;0.85;0.55;;;;;;;1.79;100.00;99619.72;2568484;55;20129;-73
2021/11/24 11:35:37;;;;;;;1.15;0.70;;;;;;;1.71;100.00;99634.25;2573433;55;20492;-70